createdAt,value
2019-03-22T14:06:06.419Z,66.50
2019-03-22T14:11:12.384Z,64.90
2019-03-22T14:16:17.196Z,67.50
2019-03-22T14:21:22.014Z,67.50
2019-03-22T14:26:26.908Z,64.00
2019-03-22T14:31:31.636Z,62.40
2019-03-22T14:36:36.399Z,63.00
2019-03-22T14:41:41.092Z,60.60
2019-03-22T14:46:45.851Z,57.20
2019-03-22T14:51:50.579Z,57.10
2019-03-22T14:56:55.296Z,55.50
2019-03-22T15:02:00.108Z,55.50
2019-03-22T15:17:24.487Z,57.50
2019-03-22T15:23:07.081Z,60.30
2019-03-22T15:28:29.373Z,58.20
2019-03-22T15:33:57.974Z,58.20
2019-03-22T15:39:27.744Z,59.60
2019-03-22T15:49:37.981Z,59.80
2019-03-22T15:54:42.721Z,64.00
2019-03-22T15:59:47.550Z,67.30
2019-03-22T16:09:56.338Z,71.20
2019-03-22T16:15:01.125Z,77.40
2019-03-22T16:20:07.146Z,79.50
2019-03-22T16:25:12.867Z,83.70
2019-03-22T16:30:19.128Z,88.30
2019-03-22T16:35:23.896Z,92.70
2019-03-22T16:40:28.768Z,96.40
2019-03-22T16:45:38.303Z,99.90
2019-03-22T16:50:43.051Z,99.90
2019-03-22T16:55:47.801Z,99.90
2019-03-22T17:00:52.544Z,99.90
2019-03-22T17:05:57.330Z,99.90
2019-03-22T17:11:02.115Z,99.90
2019-03-22T17:16:06.957Z,99.90
2019-03-22T17:21:11.859Z,99.90
2019-03-22T17:26:16.583Z,99.90
2019-03-22T17:31:21.321Z,99.90
2019-03-22T17:36:26.127Z,99.90
2019-03-22T17:41:30.853Z,99.90
2019-03-22T17:46:35.660Z,99.90
2019-03-22T17:51:40.398Z,99.90
2019-03-22T17:56:45.229Z,99.90
2019-03-22T18:01:50.131Z,99.90
2019-03-22T18:06:54.893Z,99.90
2019-03-22T18:11:59.719Z,99.90
2019-03-22T18:17:04.529Z,99.90
2019-03-22T18:22:09.392Z,99.90
2019-03-22T18:27:14.219Z,99.90
2019-03-22T18:32:18.991Z,99.90
2019-03-22T18:37:23.879Z,99.90
2019-03-22T18:42:28.703Z,99.90
2019-03-22T18:47:33.577Z,99.90
2019-03-22T18:52:38.387Z,99.90
2019-03-22T18:57:43.281Z,99.90
2019-03-22T19:02:48.116Z,99.90
2019-03-22T19:07:52.887Z,99.90
2019-03-22T19:12:57.924Z,99.90
2019-03-22T19:18:02.775Z,99.90
2019-03-22T19:23:07.577Z,99.90
2019-03-22T19:28:12.364Z,99.90
2019-03-22T19:33:17.170Z,99.90
2019-03-22T19:38:21.977Z,99.90
2019-03-22T19:43:26.737Z,99.90
2019-03-22T19:48:31.583Z,99.90
2019-03-22T19:53:36.386Z,99.90
2019-03-22T19:58:41.230Z,99.90
2019-03-22T20:03:46.216Z,99.90
2019-03-22T20:08:51.166Z,99.90
2019-03-22T20:13:55.988Z,99.90
2019-03-22T20:19:00.741Z,99.90
2019-03-22T20:24:05.507Z,99.90
2019-03-22T20:29:10.324Z,99.90
2019-03-22T20:34:15.240Z,99.90
2019-03-22T20:44:33.610Z,99.90
2019-03-22T20:49:30.569Z,99.90
2019-03-22T20:54:35.319Z,99.90
2019-03-22T20:59:40.164Z,99.90
2019-03-22T21:04:44.918Z,99.90
2019-03-22T21:09:49.803Z,99.90
2019-03-22T21:14:54.765Z,99.90
2019-03-22T21:19:59.592Z,99.90
2019-03-22T21:25:04.814Z,99.90
2019-03-22T21:30:09.914Z,99.90
2019-03-22T21:35:22.393Z,99.90
2019-03-22T21:40:21.161Z,99.90
2019-03-22T21:45:25.927Z,99.90
2019-03-22T21:50:30.770Z,99.90
2019-03-22T21:55:35.518Z,99.90
2019-03-22T22:00:40.309Z,99.90
2019-03-22T22:05:48.111Z,99.90
2019-03-22T22:10:59.376Z,99.90
2019-03-22T22:15:58.012Z,99.90
2019-03-22T22:21:02.758Z,99.90
2019-03-22T22:26:07.504Z,99.90
2019-03-22T22:31:12.222Z,99.90
2019-03-22T22:36:17.008Z,99.90
2019-03-22T22:41:21.851Z,99.90
2019-03-22T22:46:26.590Z,99.90
2019-03-22T22:51:31.293Z,99.90
2019-03-22T22:56:36.185Z,99.90
2019-03-22T23:01:40.897Z,99.90
2019-03-22T23:06:45.703Z,99.90
2019-03-22T23:11:50.507Z,99.90
2019-03-22T23:16:55.262Z,99.90
2019-03-22T23:22:00.090Z,99.90
2019-03-22T23:27:05.014Z,99.90
2019-03-22T23:32:09.763Z,99.90
2019-03-22T23:37:14.542Z,99.90
2019-03-22T23:42:19.381Z,99.90
2019-03-22T23:47:24.099Z,99.90
2019-03-22T23:52:28.947Z,99.90
2019-03-22T23:57:33.712Z,99.90
